Time;durP1;ratioP1;P1;durP2;ratioP2;P2;SDS_P1;SDS_P2;PMS_P1;PMS_P2;Temp;Humidity;BMP_temperature;BMP_pressure;BME280_temperature;BME280_humidity;BME280_pressure;Samples;Min_cycle;Max_cycle;Signal;HPM_P1;HPM_P2
2023/04/26 00:01:22;;;;;;;11.80;4.00;;;3.30;99.90;;;;;;4983093;28;20058;-52
2023/04/26 00:03:48;;;;;;;13.52;3.83;;;3.60;99.90;;;;;;4988005;28;20034;-57
2023/04/26 00:06:15;;;;;;;11.70;3.70;;;3.30;99.90;;;;;;5003866;28;20077;-57
2023/04/26 00:08:43;;;;;;;11.90;3.75;;;3.30;99.90;;;;;;5003373;28;20052;-51
2023/04/26 00:11:09;;;;;;;15.27;4.20;;;3.30;99.90;;;;;;5003900;28;20433;-46
2023/04/26 00:13:37;;;;;;;11.20;4.03;;;3.30;99.90;;;;;;5003522;28;20129;-56
2023/04/26 00:16:03;;;;;;;9.90;3.33;;;3.20;99.90;;;;;;5003032;28;20061;-53
2023/04/26 00:18:30;;;;;;;9.70;3.60;;;3.20;99.90;;;;;;5003116;28;20121;-46
2023/04/26 00:20:56;;;;;;;9.30;3.00;;;3.40;99.90;;;;;;5003199;28;20120;-58
2023/04/26 00:23:22;;;;;;;10.57;2.95;;;3.20;99.90;;;;;;5003385;28;20551;-56
2023/04/26 00:25:47;;;;;;;8.35;2.70;;;3.40;99.90;;;;;;5002892;28;20073;-52
2023/04/26 00:28:13;;;;;;;10.27;3.50;;;3.20;99.90;;;;;;5003394;28;20046;-51
2023/04/26 00:30:41;;;;;;;9.05;3.60;;;3.20;99.90;;;;;;5002901;28;20057;-56
2023/04/26 00:33:06;;;;;;;10.18;3.28;;;3.30;99.90;;;;;;5002635;28;20045;-57
2023/04/26 00:35:32;;;;;;;9.40;3.13;;;3.10;99.90;;;;;;5003244;28;20091;-51
2023/04/26 00:37:58;;;;;;;10.82;3.22;;;3.10;99.90;;;;;;5002963;28;20508;-51
2023/04/26 00:40:23;;;;;;;10.90;3.17;;;3.10;99.90;;;;;;5003307;28;20046;-58
2023/04/26 00:42:59;;;;;;;9.27;3.28;;;4.80;99.90;;;;;;5002560;28;20050;-56
2023/04/26 00:45:25;;;;;;;10.57;3.25;;;3.20;99.90;;;;;;5000946;28;20112;-56
2023/04/26 00:47:52;;;;;;;10.10;3.17;;;3.10;99.90;;;;;;5002901;28;20042;-47
2023/04/26 00:50:19;;;;;;;9.95;3.00;;;3.10;99.90;;;;;;5001503;28;20045;-51
2023/04/26 00:52:46;;;;;;;12.15;3.20;;;3.00;99.90;;;;;;5003070;28;20050;-51
2023/04/26 00:55:12;;;;;;;11.93;3.60;;;3.10;99.90;;;;;;5002621;28;20472;-50
2023/04/26 00:57:38;;;;;;;11.55;3.17;;;3.00;99.90;;;;;;5001535;28;20176;-58
2023/04/26 01:00:05;;;;;;;8.90;3.42;;;3.00;99.90;;;;;;5002221;28;20393;-53
2023/04/26 01:02:31;;;;;;;7.90;2.90;;;3.00;99.90;;;;;;5002846;28;20041;-54
2023/04/26 01:04:56;;;;;;;10.48;3.25;;;3.00;99.90;;;;;;5002613;28;20041;-56
2023/04/26 01:07:22;;;;;;;14.65;3.55;;;3.00;99.90;;;;;;5002900;28;20038;-53
2023/04/26 01:09:48;;;;;;;9.05;3.00;;;3.00;99.90;;;;;;5002486;28;20042;-52
2023/04/26 01:12:14;;;;;;;8.52;3.05;;;3.70;99.90;;;;;;5002548;28;20038;-54
2023/04/26 01:14:40;;;;;;;8.15;3.10;;;3.00;99.90;;;;;;5001591;28;20567;-58
2023/04/26 01:17:07;;;;;;;9.82;3.47;;;3.00;99.90;;;;;;5002450;28;20045;-54
2023/04/26 01:19:36;;;;;;;10.88;3.45;;;3.00;99.90;;;;;;5001739;28;20053;-52
2023/04/26 01:22:02;;;;;;;12.10;3.30;;;3.10;99.90;;;;;;5002041;28;20170;-57
2023/04/26 01:24:28;;;;;;;12.18;3.55;;;3.10;99.90;;;;;;5002504;28;20060;-57
2023/04/26 01:26:53;;;;;;;9.27;3.38;;;3.10;99.90;;;;;;5002396;28;20045;-52
2023/04/26 01:29:21;;;;;;;11.27;3.33;;;3.60;99.90;;;;;;5000916;28;20352;-53
2023/04/26 01:31:47;;;;;;;9.95;2.88;;;3.10;99.90;;;;;;5002689;28;20053;-55
2023/04/26 01:34:13;;;;;;;8.32;2.83;;;3.30;99.90;;;;;;5002864;28;20397;-49
2023/04/26 01:36:39;;;;;;;8.85;2.70;;;3.20;99.90;;;;;;5001522;28;20048;-49
2023/04/26 01:39:06;;;;;;;9.90;3.13;;;3.20;99.90;;;;;;5002223;28;20136;-55
2023/04/26 01:41:32;;;;;;;12.07;3.10;;;3.20;99.90;;;;;;5002574;28;20473;-57
2023/04/26 01:43:58;;;;;;;7.60;2.60;;;3.30;99.90;;;;;;5001738;28;20129;-55
2023/04/26 01:46:23;;;;;;;7.10;2.50;;;3.30;99.90;;;;;;5001387;28;20046;-52
2023/04/26 01:48:49;;;;;;;8.98;2.80;;;3.20;99.90;;;;;;5001072;28;20496;-54
2023/04/26 01:51:15;;;;;;;11.80;3.00;;;3.20;99.90;;;;;;5002781;28;20046;-58
2023/04/26 01:53:41;;;;;;;9.68;2.60;;;3.20;99.90;;;;;;5000488;28;20115;-52
2023/04/26 01:56:07;;;;;;;10.07;3.20;;;3.40;99.90;;;;;;5002234;28;20126;-57
2023/04/26 01:58:32;;;;;;;9.20;3.00;;;3.20;99.90;;;;;;5001972;28;20041;-49
2023/04/26 02:01:07;;;;;;;12.50;3.42;;;3.10;99.90;;;;;;5001181;28;20053;-57
2023/04/26 02:03:33;;;;;;;;;;;3.20;99.90;;;;;;5002622;28;20405;-51
2023/04/26 02:05:58;;;;;;;8.77;3.30;;;3.20;99.90;;;;;;5002920;28;19987;-48
2023/04/26 02:08:24;;;;;;;10.70;3.20;;;3.20;99.90;;;;;;5004963;28;20148;-57
2023/04/26 02:10:50;;;;;;;10.43;3.20;;;3.20;99.90;;;;;;5005539;28;20046;-57
2023/04/26 02:13:15;;;;;;;9.07;3.40;;;3.30;99.90;;;;;;5006250;28;20651;-50
2023/04/26 02:15:45;;;;;;;7.85;2.97;;;3.30;99.90;;;;;;5004800;28;20054;-53
2023/04/26 02:18:11;;;;;;;11.82;3.97;;;3.30;99.90;;;;;;5005515;28;20041;-55
2023/04/26 02:20:42;;;;;;;10.45;3.50;;;3.30;99.90;;;;;;5005967;28;20045;-54
2023/04/26 02:23:08;;;;;;;12.05;3.80;;;3.30;99.90;;;;;;5005539;28;20064;-58
2023/04/26 02:25:33;;;;;;;4.93;2.33;;;3.40;99.90;;;;;;5005382;28;20057;-47
2023/04/26 02:27:59;;;;;;;10.32;3.17;;;3.40;99.90;;;;;;5004406;28;20034;-56
2023/04/26 02:30:24;;;;;;;7.03;2.83;;;3.50;99.90;;;;;;5004949;28;20132;-53
2023/04/26 02:32:53;;;;;;;11.18;3.10;;;3.50;99.90;;;;;;5004970;28;20046;-45
2023/04/26 02:35:19;;;;;;;6.63;2.72;;;3.50;99.90;;;;;;5005639;28;20046;-59
2023/04/26 02:37:47;;;;;;;8.48;2.80;;;3.50;99.90;;;;;;5005619;28;20135;-54
2023/04/26 02:40:13;;;;;;;10.25;2.92;;;3.50;99.90;;;;;;5005134;28;20305;-47
2023/04/26 02:42:39;;;;;;;10.23;3.10;;;3.50;99.90;;;;;;5004905;28;20084;-58
2023/04/26 02:45:06;;;;;;;9.55;3.33;;;3.40;99.90;;;;;;5004738;28;20501;-59
2023/04/26 02:47:31;;;;;;;10.43;3.28;;;3.40;99.90;;;;;;5005210;28;20077;-51
2023/04/26 02:49:57;;;;;;;9.75;3.00;;;3.40;99.90;;;;;;5003319;28;20074;-48
2023/04/26 02:52:23;;;;;;;9.75;3.28;;;3.30;99.90;;;;;;5005059;28;20116;-58
2023/04/26 02:54:49;;;;;;;12.10;3.42;;;3.20;99.90;;;;;;5005509;28;20048;-57
2023/04/26 02:57:15;;;;;;;10.52;3.33;;;3.20;99.90;;;;;;5004430;28;20042;-49
2023/04/26 02:59:42;;;;;;;13.45;3.53;;;3.50;99.90;;;;;;5004558;28;20447;-55
2023/04/26 03:02:08;;;;;;;11.23;3.30;;;3.20;99.90;;;;;;5004865;28;20520;-58
2023/04/26 03:04:34;;;;;;;9.40;3.42;;;3.10;99.90;;;;;;5005157;28;20046;-49
2023/04/26 03:07:02;;;;;;;12.43;3.92;;;3.00;99.90;;;;;;5004128;28;20453;-54
2023/04/26 03:09:27;;;;;;;10.48;3.63;;;3.00;99.90;;;;;;5004878;28;20044;-56
2023/04/26 03:11:53;;;;;;;8.20;3.58;;;3.10;99.90;;;;;;5003373;28;20045;-58
2023/04/26 03:14:19;;;;;;;9.60;3.67;;;3.10;99.90;;;;;;5003810;28;20512;-55
2023/04/26 03:16:45;;;;;;;12.90;4.18;;;3.00;99.90;;;;;;5004169;28;20050;-53
2023/04/26 03:19:10;;;;;;;7.88;3.40;;;2.90;99.90;;;;;;5004772;28;20045;-52
2023/04/26 03:21:36;;;;;;;10.60;3.70;;;3.00;99.90;;;;;;5004401;28;20222;-55
2023/04/26 03:24:02;;;;;;;10.10;3.95;;;3.00;99.90;;;;;;5004875;28;20046;-59
2023/04/26 03:26:27;;;;;;;10.05;3.25;;;2.90;99.90;;;;;;5004541;28;20508;-55
2023/04/26 03:28:53;;;;;;;8.60;3.58;;;2.90;99.90;;;;;;5004090;28;20050;-53
2023/04/26 03:31:20;;;;;;;10.93;3.38;;;2.90;99.90;;;;;;5004746;28;20509;-56
2023/04/26 03:33:46;;;;;;;9.32;3.42;;;3.50;99.90;;;;;;5004533;28;20038;-54
2023/04/26 03:36:12;;;;;;;11.70;4.00;;;2.80;99.90;;;;;;5004246;28;20049;-58
2023/04/26 03:38:37;;;;;;;10.50;3.80;;;2.80;99.90;;;;;;5003595;28;20045;-51
2023/04/26 03:41:03;;;;;;;9.55;3.22;;;2.80;99.90;;;;;;5003911;28;20041;-54
2023/04/26 03:43:29;;;;;;;7.82;3.53;;;2.80;99.90;;;;;;5004446;28;20136;-50
2023/04/26 03:45:54;;;;;;;11.73;3.75;;;2.70;99.90;;;;;;5004123;28;20045;-50
2023/04/26 03:48:20;;;;;;;12.75;3.60;;;2.70;99.90;;;;;;5003951;28;20038;-56
2023/04/26 03:50:46;;;;;;;12.25;3.40;;;2.70;99.90;;;;;;5003807;28;20046;-51
2023/04/26 03:53:12;;;;;;;11.65;3.70;;;2.80;99.90;;;;;;5003871;28;20417;-55
2023/04/26 03:55:37;;;;;;;9.48;3.58;;;3.00;99.90;;;;;;5003561;28;20756;-58
2023/04/26 03:58:06;;;;;;;8.52;3.33;;;2.80;99.90;;;;;;5002550;28;20049;-45
2023/04/26 04:00:34;;;;;;;12.77;3.55;;;3.00;99.90;;;;;;5003151;28;20063;-52
2023/04/26 04:02:59;;;;;;;11.00;3.30;;;2.90;99.90;;;;;;5003188;28;20045;-59
2023/04/26 04:05:25;;;;;;;10.27;3.10;;;2.90;99.90;;;;;;5004201;28;20038;-57
2023/04/26 04:07:51;;;;;;;8.93;3.28;;;3.10;99.90;;;;;;5004029;28;20046;-55
2023/04/26 04:10:16;;;;;;;11.38;3.45;;;3.10;99.90;;;;;;5003277;28;20421;-51
2023/04/26 04:12:42;;;;;;;13.75;3.95;;;3.20;99.90;;;;;;5003284;28;20125;-57
2023/04/26 04:15:08;;;;;;;11.75;3.72;;;3.20;99.90;;;;;;5002899;28;20057;-54
2023/04/26 04:17:34;;;;;;;5.18;2.90;;;3.30;99.90;;;;;;5003092;28;20053;-56
2023/04/26 04:20:02;;;;;;;7.38;2.88;;;3.30;99.90;;;;;;5002420;28;20030;-52
2023/04/26 04:22:27;;;;;;;11.20;3.40;;;3.30;99.90;;;;;;5003491;28;20281;-56
2023/04/26 04:24:53;;;;;;;7.55;2.90;;;3.30;99.90;;;;;;5003752;28;20315;-58
2023/04/26 04:27:20;;;;;;;10.20;3.35;;;3.30;99.90;;;;;;5002195;28;20046;-56
2023/04/26 04:29:45;;;;;;;9.57;3.22;;;3.40;99.90;;;;;;5001982;28;20166;-52
2023/04/26 04:32:13;;;;;;;12.98;2.95;;;3.40;99.90;;;;;;5003571;28;20528;-55
2023/04/26 04:34:40;;;;;;;7.85;2.90;;;3.30;99.90;;;;;;5003395;28;20432;-48
2023/04/26 04:37:06;;;;;;;7.70;3.30;;;3.80;99.90;;;;;;5001550;28;20060;-49
2023/04/26 04:39:31;;;;;;;8.20;2.97;;;3.30;99.90;;;;;;5003318;28;20050;-51
2023/04/26 04:41:59;;;;;;;6.55;3.05;;;3.40;99.90;;;;;;5003803;28;20263;-58
2023/04/26 04:44:25;;;;;;;9.43;3.40;;;3.30;99.90;;;;;;5001203;28;20046;-57
2023/04/26 04:46:51;;;;;;;9.45;3.15;;;3.20;99.90;;;;;;5003229;28;20572;-54
2023/04/26 04:49:17;;;;;;;9.43;3.70;;;3.30;99.90;;;;;;5003044;28;20121;-54
2023/04/26 04:51:43;;;;;;;7.57;3.28;;;3.20;99.90;;;;;;5002315;28;20049;-54
2023/04/26 04:54:13;;;;;;;10.30;3.30;;;3.20;99.90;;;;;;5003327;28;20137;-57
2023/04/26 04:56:39;;;;;;;11.07;3.60;;;3.20;99.90;;;;;;5002767;28;20030;-55
2023/04/26 04:59:05;;;;;;;9.25;3.17;;;3.20;99.90;;;;;;5002196;28;20048;-56
2023/04/26 05:01:35;;;;;;;8.48;3.60;;;3.30;99.90;;;;;;5002182;28;20124;-57
2023/04/26 05:04:01;;;;;;;10.27;3.40;;;3.40;99.90;;;;;;5002727;28;20112;-53
2023/04/26 05:06:27;;;;;;;15.18;3.72;;;3.50;99.90;;;;;;5001836;28;20757;-59
2023/04/26 05:08:53;;;;;;;7.70;3.08;;;3.80;99.90;;;;;;5002453;28;20042;-59
2023/04/26 05:11:19;;;;;;;14.15;4.03;;;4.10;99.90;;;;;;5003008;28;20084;-55
2023/04/26 05:13:45;;;;;;;10.30;3.28;;;4.50;99.90;;;;;;5001651;28;20049;-53
2023/04/26 05:16:11;;;;;;;9.23;3.50;;;4.80;99.90;;;;;;5002035;28;20060;-56
2023/04/26 05:18:37;;;;;;;8.27;3.20;;;5.40;99.90;;;;;;5003214;28;20334;-57
2023/04/26 05:21:03;;;;;;;6.57;2.85;;;5.00;99.90;;;;;;5002515;28;20046;-55
2023/04/26 05:23:28;;;;;;;7.43;2.95;;;5.10;99.90;;;;;;5002515;28;20117;-51
2023/04/26 05:25:54;;;;;;;5.63;2.75;;;5.40;99.90;;;;;;5001866;28;20286;-53
2023/04/26 05:28:20;;;;;;;7.18;2.67;;;5.60;99.90;;;;;;5001659;28;20084;-57
2023/04/26 05:30:46;;;;;;;11.48;3.40;;;5.80;99.90;;;;;;5002731;28;20103;-59
2023/04/26 05:33:12;;;;;;;8.88;3.50;;;5.80;99.90;;;;;;4984538;28;20050;-52
2023/04/26 05:35:38;;;;;;;5.78;2.72;;;5.60;99.90;;;;;;5002388;28;20046;-55
2023/04/26 05:38:03;;;;;;;6.43;2.88;;;5.30;99.90;;;;;;5002459;28;20424;-47
2023/04/26 05:40:30;;;;;;;9.32;2.78;;;5.40;99.90;;;;;;5002039;28;20106;-53
2023/04/26 05:42:56;;;;;;;8.50;2.30;;;6.00;99.90;;;;;;4990184;28;20580;-51
2023/04/26 05:45:21;;;;;;;8.07;2.50;;;6.20;99.90;;;;;;4981842;28;20046;-51
2023/04/26 05:47:47;;;;;;;9.75;2.60;;;6.20;99.90;;;;;;4981324;28;20056;-57
2023/04/26 05:50:13;;;;;;;7.95;2.42;;;5.90;99.90;;;;;;4980649;28;20034;-55
2023/04/26 05:52:38;;;;;;;5.95;2.67;;;5.70;99.90;;;;;;4982567;28;20109;-59
2023/04/26 05:55:05;;;;;;;10.82;2.78;;;5.60;99.90;;;;;;4980993;28;20047;-54
2023/04/26 05:57:31;;;;;;;7.80;2.65;;;5.50;99.90;;;;;;4982112;28;20050;-52
2023/04/26 05:59:57;;;;;;;5.80;2.75;;;5.40;99.90;;;;;;4981670;28;20385;-48
2023/04/26 06:02:22;;;;;;;5.95;2.25;;;5.80;99.90;;;;;;4982205;28;20505;-60
2023/04/26 06:04:48;;;;;;;8.63;2.33;;;5.80;99.90;;;;;;4982062;28;20038;-57
2023/04/26 06:07:16;;;;;;;9.05;2.22;;;5.40;99.90;;;;;;4981744;28;20080;-51
2023/04/26 06:09:42;;;;;;;5.63;2.38;;;5.30;99.90;;;;;;4982326;28;20155;-47
2023/04/26 06:12:07;;;;;;;6.55;2.40;;;5.40;99.90;;;;;;4982553;28;20100;-57
2023/04/26 06:14:33;;;;;;;6.68;2.40;;;5.70;99.90;;;;;;4981022;28;20058;-50
2023/04/26 06:16:59;;;;;;;6.90;2.42;;;6.30;99.90;;;;;;4982516;28;20606;-53
2023/04/26 06:19:25;;;;;;;7.80;2.72;;;6.90;99.90;;;;;;4982354;28;20053;-59
2023/04/26 06:21:55;;;;;;;9.60;2.53;;;7.40;99.90;;;;;;4982007;28;20092;-47
2023/04/26 06:24:23;;;;;;;7.82;2.20;;;7.70;99.90;;;;;;4982168;28;20038;-45
2023/04/26 06:26:49;;;;;;;5.45;2.28;;;8.20;99.90;;;;;;4982524;28;20077;-52
2023/04/26 06:29:14;;;;;;;7.00;2.22;;;8.60;99.90;;;;;;4981767;28;20046;-47
2023/04/26 06:31:40;;;;;;;5.55;2.10;;;8.80;99.90;;;;;;4981980;28;20617;-55
2023/04/26 06:34:06;;;;;;;6.97;2.30;;;9.00;99.90;;;;;;4982103;28;20046;-53
2023/04/26 06:36:32;;;;;;;7.18;2.30;;;9.00;99.90;;;;;;4982714;28;20456;-58
2023/04/26 06:38:57;;;;;;;6.75;2.30;;;8.80;99.90;;;;;;4981830;28;20149;-59
2023/04/26 06:41:23;;;;;;;6.55;2.22;;;8.30;99.90;;;;;;4982150;28;20042;-55
2023/04/26 06:43:49;;;;;;;6.65;2.58;;;7.80;99.90;;;;;;4981558;28;20046;-54
2023/04/26 06:46:14;;;;;;;4.25;2.13;;;7.20;99.90;;;;;;4981421;28;20042;-55
2023/04/26 06:48:40;;;;;;;7.07;2.45;;;6.70;99.90;;;;;;4982070;28;20069;-58
2023/04/26 06:51:07;;;;;;;6.68;2.22;;;6.40;99.90;;;;;;4982132;28;20098;-57
2023/04/26 06:53:33;;;;;;;7.05;2.78;;;6.20;99.90;;;;;;4985457;28;20054;-55
2023/04/26 06:55:59;;;;;;;7.82;2.70;;;6.00;99.90;;;;;;4985240;28;20409;-54
2023/04/26 06:58:24;;;;;;;7.18;2.33;;;5.90;99.90;;;;;;4985048;28;20286;-56
2023/04/26 07:00:50;;;;;;;6.90;2.15;;;5.50;99.90;;;;;;4985439;28;20053;-59
2023/04/26 07:03:16;;;;;;;13.90;2.53;;;6.00;99.90;;;;;;4985104;28;20042;-49
2023/04/26 07:05:41;;;;;;;6.35;2.40;;;5.40;99.90;;;;;;4967931;28;20054;-53
2023/04/26 07:08:07;;;;;;;8.70;2.38;;;5.50;99.90;;;;;;4987945;28;20500;-54
2023/04/26 07:10:33;;;;;;;6.72;2.53;;;5.50;99.90;;;;;;4994183;28;20076;-53
2023/04/26 07:12:59;;;;;;;4.95;2.45;;;5.70;99.90;;;;;;4993116;28;20045;-59
2023/04/26 07:15:25;;;;;;;7.80;2.70;;;5.60;99.90;;;;;;4995625;28;20050;-54
2023/04/26 07:17:51;;;;;;;6.03;2.47;;;5.60;99.90;;;;;;5004574;28;20057;-55
2023/04/26 07:20:19;;;;;;;6.03;2.33;;;5.60;99.90;;;;;;5003906;28;20077;-53
2023/04/26 07:22:46;;;;;;;5.88;2.15;;;6.00;99.90;;;;;;5004447;28;20050;-52
2023/04/26 07:25:11;;;;;;;4.57;1.90;;;6.80;99.90;;;;;;5004774;28;20444;-57
2023/04/26 07:27:37;;;;;;;7.47;2.40;;;7.60;99.90;;;;;;5003911;28;20038;-50
2023/04/26 07:30:04;;;;;;;7.85;2.38;;;8.00;99.90;;;;;;5003780;28;20130;-54
2023/04/26 07:32:30;;;;;;;9.73;2.30;;;8.40;99.90;;;;;;5004309;28;20495;-55
2023/04/26 07:34:56;;;;;;;5.65;2.40;;;8.60;99.90;;;;;;5004180;28;20052;-57
2023/04/26 07:37:22;;;;;;;9.40;2.83;;;8.60;99.90;;;;;;5002340;28;20139;-58
2023/04/26 07:39:47;;;;;;;10.05;2.80;;;8.60;99.90;;;;;;5004104;28;20044;-55
2023/04/26 07:42:14;;;;;;;9.25;2.70;;;8.60;99.90;;;;;;5003530;28;20503;-58
2023/04/26 07:44:39;;;;;;;7.80;2.53;;;8.60;99.90;;;;;;4992141;28;20042;-58
2023/04/26 07:47:11;;;;;;;9.57;2.40;;;8.80;99.90;;;;;;4993881;28;20125;-57
2023/04/26 07:49:36;;;;;;;7.38;2.88;;;8.70;99.90;;;;;;4993320;28;20049;-58
2023/04/26 07:52:02;;;;;;;6.03;2.50;;;8.80;99.90;;;;;;5003101;28;20385;-55
2023/04/26 07:54:28;;;;;;;7.05;3.00;;;9.00;99.90;;;;;;5003758;28;20045;-58
2023/04/26 07:56:54;;;;;;;6.38;2.60;;;9.40;99.90;;;;;;5002399;28;20161;-57
2023/04/26 07:59:20;;;;;;;5.40;2.53;;;9.90;99.90;;;;;;5002853;28;20038;-57
2023/04/26 08:01:45;;;;;;;7.22;2.70;;;10.20;99.90;;;;;;5003128;28;20358;-59
2023/04/26 08:04:11;;;;;;;8.50;2.08;;;9.90;99.90;;;;;;5003644;28;20300;-51
2023/04/26 08:06:37;;;;;;;5.70;2.42;;;9.40;99.90;;;;;;5004090;28;20073;-57
2023/04/26 08:09:04;;;;;;;8.32;2.47;;;9.50;99.90;;;;;;4996941;28;20049;-47
2023/04/26 08:11:29;;;;;;;5.72;1.90;;;9.70;99.90;;;;;;4992513;28;20879;-58
2023/04/26 08:13:55;;;;;;;5.57;1.92;;;9.80;99.90;;;;;;4988381;28;20053;-56
2023/04/26 08:16:21;;;;;;;8.23;2.33;;;9.80;99.90;;;;;;5002695;28;20142;-55
2023/04/26 08:18:46;;;;;;;9.32;2.85;;;9.80;99.90;;;;;;5002536;28;20038;-57
2023/04/26 08:21:12;;;;;;;9.55;2.40;;;9.60;99.90;;;;;;5001448;28;20121;-58
2023/04/26 08:23:38;;;;;;;11.80;2.35;;;9.40;99.90;;;;;;5003155;28;20084;-56
2023/04/26 08:26:03;;;;;;;7.47;2.00;;;9.10;99.90;;;;;;5002428;28;20061;-55
2023/04/26 08:28:29;;;;;;;10.30;2.95;;;8.90;99.90;;;;;;4999339;28;20042;-58
2023/04/26 08:30:55;;;;;;;6.95;2.45;;;9.20;99.90;;;;;;4985558;28;20505;-56
2023/04/26 08:33:21;;;;;;;6.18;2.70;;;9.60;99.90;;;;;;5001406;28;20443;-56
2023/04/26 08:35:46;;;;;;;7.32;2.30;;;9.60;99.90;;;;;;5001748;28;20471;-57
2023/04/26 08:38:12;;;;;;;10.05;2.67;;;9.60;99.90;;;;;;5002528;28;20100;-56
2023/04/26 08:40:40;;;;;;;8.80;2.65;;;9.80;99.90;;;;;;5003430;28;20048;-57
2023/04/26 08:43:07;;;;;;;6.65;2.10;;;9.60;99.90;;;;;;5002778;28;20053;-52
2023/04/26 08:45:34;;;;;;;8.10;2.70;;;9.50;99.90;;;;;;5004905;28;20380;-56
2023/04/26 08:48:10;;;;;;;9.48;2.63;;;9.10;99.90;;;;;;5003828;28;20489;-57
2023/04/26 08:50:38;;;;;;;6.65;2.33;;;8.90;99.90;;;;;;5005044;28;20121;-53
2023/04/26 08:53:05;;;;;;;11.48;2.70;;;8.80;99.90;;;;;;5001966;28;20053;-56
2023/04/26 08:55:32;;;;;;;8.65;3.13;;;8.80;99.90;;;;;;5001763;28;20065;-56
2023/04/26 08:57:59;;;;;;;10.57;2.78;;;8.80;99.90;;;;;;5001855;28;20077;-60
2023/04/26 09:00:26;;;;;;;6.18;2.08;;;8.90;99.90;;;;;;5003059;28;20042;-60
2023/04/26 09:02:52;;;;;;;10.80;2.80;;;8.90;99.90;;;;;;5001592;28;20099;-53
2023/04/26 09:05:26;;;;;;;5.85;2.47;;;8.80;99.90;;;;;;5002467;28;20747;-57
2023/04/26 09:07:56;;;;;;;8.27;2.58;;;9.00;99.90;;;;;;5001541;28;20053;-54
2023/04/26 09:10:22;;;;;;;8.02;2.63;;;9.20;99.90;;;;;;5001447;28;20137;-58
2023/04/26 09:12:54;;;;;;;5.57;2.03;;;9.50;99.90;;;;;;5001501;28;20081;-56
2023/04/26 09:15:22;;;;;;;6.68;1.45;;;9.70;99.90;;;;;;5002295;28;20421;-59
2023/04/26 09:17:51;;;;;;;5.20;1.60;;;9.50;99.90;;;;;;5002501;28;20042;-53
2023/04/26 09:20:27;;;;;;;10.88;1.88;;;9.20;99.90;;;;;;5001983;28;20125;-60
2023/04/26 09:23:15;;;;;;;8.88;1.80;;;9.00;99.90;;;;;;5002840;28;20318;-58
2023/04/26 09:25:41;;;;;;;6.57;1.73;;;8.60;99.90;;;;;;5002676;28;20038;-53
2023/04/26 09:28:21;;;;;;;7.15;2.72;;;8.30;99.90;;;;;;5001742;28;20045;-60
2023/04/26 09:30:48;;;;;;;9.52;2.03;;;8.20;99.90;;;;;;5000508;28;20050;-60
2023/04/26 09:33:14;;;;;;;7.15;1.90;;;8.10;99.90;;;;;;5002898;28;20034;-58
2023/04/26 09:35:40;;;;;;;4.30;1.50;;;8.00;99.90;;;;;;5002614;28;20108;-56
2023/04/26 09:38:14;;;;;;;4.88;1.50;;;8.00;99.90;;;;;;5000678;28;20249;-57
2023/04/26 09:40:41;;;;;;;6.13;1.60;;;8.10;99.90;;;;;;5002501;28;20046;-57
2023/04/26 09:43:12;;;;;;;3.05;1.20;;;8.20;99.90;;;;;;5001706;28;20124;-57
2023/04/26 09:45:48;;;;;;;6.05;1.40;;;8.20;99.90;;;;;;5001760;28;20050;-55
2023/04/26 09:48:24;;;;;;;6.78;1.63;;;8.30;99.90;;;;;;5002653;28;20038;-54
2023/04/26 09:50:55;;;;;;;6.88;1.48;;;8.30;99.90;;;;;;5001726;28;20061;-56
2023/04/26 09:53:39;;;;;;;8.80;1.70;;;8.30;99.90;;;;;;5002378;28;20045;-59
2023/04/26 09:56:18;;;;;;;5.75;1.38;;;8.30;99.90;;;;;;5002098;28;20135;-56
2023/04/26 09:58:46;;;;;;;6.65;1.60;;;8.50;99.90;;;;;;5001813;28;20042;-53
2023/04/26 10:01:17;;;;;;;6.32;1.73;;;8.30;99.90;;;;;;5002637;28;20451;-60
2023/04/26 10:03:44;;;;;;;6.45;1.45;;;8.40;99.90;;;;;;5001507;28;20519;-53
2023/04/26 10:06:11;;;;;;;4.88;1.48;;;8.50;99.90;;;;;;5002357;28;20099;-60
2023/04/26 10:08:37;;;;;;;5.55;1.60;;;8.60;99.90;;;;;;5001864;28;20135;-60
2023/04/26 10:11:04;;;;;;;6.80;2.05;;;9.00;99.90;;;;;;5001666;28;20076;-58
2023/04/26 10:13:33;;;;;;;4.78;1.50;;;8.80;99.90;;;;;;5001307;28;20738;-57
2023/04/26 10:16:03;;;;;;;7.20;1.70;;;8.90;99.90;;;;;;5001940;28;20058;-57
2023/04/26 10:18:30;;;;;;;6.80;1.88;;;8.90;99.90;;;;;;5001450;28;20409;-53
2023/04/26 10:20:59;;;;;;;4.05;1.52;;;9.00;99.90;;;;;;5001842;28;20050;-58
2023/04/26 10:23:26;;;;;;;7.38;1.77;;;9.00;99.90;;;;;;4984316;28;20045;-55
2023/04/26 10:25:52;;;;;;;4.00;1.40;;;9.10;99.90;;;;;;5001573;28;20053;-56
2023/04/26 10:28:44;;;;;;;6.88;1.70;;;9.60;99.90;;;;;;5004082;28;20034;-56
2023/04/26 10:31:10;;;;;;;6.00;1.33;;;9.30;99.90;;;;;;5005428;28;20050;-61
2023/04/26 10:33:36;;;;;;;7.53;1.42;;;9.30;99.90;;;;;;5005519;28;20507;-61
2023/04/26 10:36:11;;;;;;;6.43;1.30;;;9.40;99.90;;;;;;5005608;28;20077;-56
2023/04/26 10:39:01;;;;;;;8.45;1.75;;;9.50;99.90;;;;;;5004925;28;20486;-59
2023/04/26 10:41:38;;;;;;;5.80;1.58;;;9.40;99.90;;;;;;5005121;28;20049;-57
2023/04/26 10:44:37;;;;;;;8.40;1.55;;;9.40;99.90;;;;;;5002634;28;20129;-60
2023/04/26 10:47:05;;;;;;;7.03;1.83;;;9.50;99.90;;;;;;5004721;28;20155;-57
2023/04/26 10:49:45;;;;;;;6.35;2.45;;;9.50;99.90;;;;;;5005337;28;20046;-59
2023/04/26 10:52:18;;;;;;;4.65;2.15;;;9.50;99.90;;;;;;5005140;28;20478;-54
2023/04/26 10:54:52;;;;;;;6.43;2.60;;;9.40;99.90;;;;;;5004372;28;20120;-56
2023/04/26 10:57:18;;;;;;;8.27;2.65;;;9.10;99.90;;;;;;5005512;28;20153;-57
2023/04/26 11:00:11;;;;;;;7.25;2.47;;;9.00;99.90;;;;;;5004958;28;20054;-49
2023/04/26 11:03:02;;;;;;;6.93;2.28;;;8.80;99.90;;;;;;5005007;28;20488;-58
2023/04/26 11:05:37;;;;;;;7.72;2.30;;;8.60;99.90;;;;;;5005270;28;20034;-58
2023/04/26 11:08:04;;;;;;;;;;;8.50;99.90;;;;;;5003797;28;20061;-50
2023/04/26 11:10:29;;;;;;;9.38;2.30;;;8.60;99.90;;;;;;5004252;28;20021;-55
2023/04/26 11:13:00;;;;;;;9.43;2.70;;;8.50;99.90;;;;;;5003988;28;20124;-54
2023/04/26 11:15:25;;;;;;;7.20;2.67;;;8.60;99.90;;;;;;5005176;28;20062;-59
2023/04/26 11:17:51;;;;;;;6.53;3.30;;;8.70;99.90;;;;;;5002655;28;20053;-55
2023/04/26 11:20:17;;;;;;;6.57;2.15;;;9.00;99.90;;;;;;5004812;28;20068;-54
2023/04/26 11:22:42;;;;;;;5.72;1.77;;;9.10;99.90;;;;;;5004816;28;20053;-58
2023/04/26 11:25:08;;;;;;;8.25;1.73;;;9.10;99.90;;;;;;5004573;28;20053;-58
2023/04/26 11:27:34;;;;;;;7.32;1.80;;;9.10;99.90;;;;;;5003576;28;20052;-59
2023/04/26 11:30:03;;;;;;;7.40;2.15;;;9.10;99.90;;;;;;5004521;28;20045;-52
2023/04/26 11:32:29;;;;;;;5.25;2.08;;;9.00;99.90;;;;;;5004664;28;20448;-59
2023/04/26 11:34:58;;;;;;;7.05;2.05;;;9.00;99.90;;;;;;5004219;28;20046;-59
2023/04/26 11:37:25;;;;;;;8.10;2.17;;;8.90;99.90;;;;;;5004016;28;20042;-55
2023/04/26 11:39:51;;;;;;;7.47;2.10;;;9.00;99.90;;;;;;5004416;28;20242;-55
2023/04/26 11:42:16;;;;;;;6.60;1.70;;;8.90;99.90;;;;;;5003003;28;20061;-60
2023/04/26 11:44:42;;;;;;;5.22;1.45;;;8.80;99.90;;;;;;5004418;28;20404;-60
2023/04/26 11:47:08;;;;;;;7.28;1.88;;;8.70;99.90;;;;;;5004265;28;20038;-52
2023/04/26 11:49:37;;;;;;;7.53;1.58;;;8.70;99.90;;;;;;5003564;28;20511;-55
2023/04/26 11:52:04;;;;;;;4.97;1.83;;;8.70;99.90;;;;;;5004260;28;20034;-54
2023/04/26 11:54:31;;;;;;;6.63;1.40;;;8.60;99.90;;;;;;5004268;28;20445;-56
2023/04/26 11:56:57;;;;;;;7.38;1.70;;;8.50;99.90;;;;;;5004432;28;20234;-59
2023/04/26 11:59:28;;;;;;;6.43;1.50;;;8.40;99.90;;;;;;5003049;28;20064;-53
2023/04/26 12:01:56;;;;;;;5.45;1.70;;;8.30;99.90;;;;;;5002375;28;20057;-55
2023/04/26 12:04:28;;;;;;;5.15;1.73;;;8.20;99.90;;;;;;5004421;28;20042;-59
2023/04/26 12:06:55;;;;;;;5.43;1.73;;;8.00;99.90;;;;;;5003852;28;20054;-48
2023/04/26 12:09:27;;;;;;;5.53;1.90;;;7.80;99.90;;;;;;5004159;28;20041;-57
2023/04/26 12:12:06;;;;;;;7.55;1.60;;;7.80;99.90;;;;;;5003470;28;20129;-54
2023/04/26 12:14:36;;;;;;;5.40;1.70;;;7.70;99.90;;;;;;5004485;28;20046;-57
2023/04/26 12:17:04;;;;;;;5.30;2.17;;;7.80;99.90;;;;;;5004457;28;20555;-59
2023/04/26 12:19:33;;;;;;;4.78;1.70;;;7.60;99.90;;;;;;5002697;28;20060;-57
2023/04/26 12:21:59;;;;;;;4.65;1.55;;;7.60;99.90;;;;;;5003507;28;20081;-59
2023/04/26 12:24:33;;;;;;;4.38;1.52;;;7.60;99.90;;;;;;5003896;28;20504;-60
2023/04/26 12:27:03;;;;;;;5.75;1.80;;;7.80;99.90;;;;;;5003509;28;20057;-59
2023/04/26 12:29:30;;;;;;;5.78;1.77;;;7.80;99.90;;;;;;5003321;28;20165;-53
2023/04/26 12:31:57;;;;;;;4.30;1.55;;;8.10;99.90;;;;;;5002296;28;20065;-56
2023/04/26 12:34:23;;;;;;;5.25;1.73;;;7.90;99.90;;;;;;5003201;28;20138;-59
2023/04/26 12:36:49;;;;;;;5.18;2.10;;;7.90;99.90;;;;;;5003200;28;20172;-53
2023/04/26 12:39:15;;;;;;;5.32;1.60;;;8.00;99.90;;;;;;5003262;28;20681;-58
2023/04/26 12:41:42;;;;;;;4.15;1.58;;;8.10;99.90;;;;;;5002839;28;20050;-52
2023/04/26 12:44:08;;;;;;;6.78;2.08;;;8.20;99.90;;;;;;5001417;28;20053;-59
2023/04/26 12:46:34;;;;;;;7.30;1.50;;;8.30;99.90;;;;;;5003192;28;20083;-52
2023/04/26 12:49:00;;;;;;;5.10;1.48;;;8.50;99.90;;;;;;5002792;28;20069;-60
2023/04/26 12:51:26;;;;;;;7.65;1.95;;;8.70;99.90;;;;;;5002806;28;20050;-62
2023/04/26 12:53:51;;;;;;;5.57;1.77;;;9.00;99.90;;;;;;5003564;28;20050;-56
2023/04/26 12:56:17;;;;;;;5.35;1.70;;;9.10;99.90;;;;;;5001477;28;20472;-55